createdAt,value
2018-10-12T14:28:58.126Z,26.30
2018-10-12T14:33:49.498Z,24.30
2018-10-12T14:40:10.094Z,24.10
2018-10-12T14:51:07.437Z,23.30
2018-10-12T14:53:37.777Z,23.10
2018-10-12T14:56:06.980Z,23.00
2018-10-12T14:58:36.658Z,22.90
2018-10-12T15:01:06.100Z,22.90
2018-10-12T15:03:35.159Z,22.80
2018-10-12T15:06:04.284Z,22.90
2018-10-12T15:08:33.348Z,22.90
2018-10-12T15:11:03.129Z,22.90
2018-10-12T15:13:33.207Z,22.90
2018-10-12T15:16:02.269Z,22.90
2018-10-12T15:18:31.307Z,22.90
2018-10-12T15:21:00.467Z,23.00
2018-10-12T15:23:29.452Z,23.00
2018-10-12T15:26:04.291Z,23.00
2018-10-12T15:28:33.341Z,22.90
2018-10-12T15:31:02.623Z,22.90
2018-10-12T15:33:31.653Z,22.90
2018-10-12T15:36:01.433Z,22.90
2018-10-12T15:38:30.771Z,22.80
2018-10-12T15:41:00.871Z,22.80
2018-10-12T15:43:31.509Z,22.70
2018-10-12T15:46:00.759Z,22.60
2018-10-12T15:48:29.767Z,22.60
2018-10-12T15:50:58.980Z,22.60
2018-10-12T15:53:29.368Z,22.50
2018-10-12T15:56:00.523Z,22.50
2018-10-12T15:58:30.735Z,22.50
2018-10-12T16:01:00.405Z,22.40
2018-10-12T16:03:29.787Z,22.30
2018-10-12T16:05:58.928Z,22.20
2018-10-12T16:08:30.121Z,22.20
2018-10-12T16:11:00.440Z,22.10
2018-10-12T16:13:29.803Z,22.00
2018-10-12T16:16:00.325Z,22.00
2018-10-12T16:18:29.433Z,21.90
2018-10-12T16:20:58.569Z,21.90
2018-10-12T16:23:27.636Z,21.80
2018-10-12T16:26:19.628Z,21.70
2018-10-12T16:28:48.663Z,21.70
2018-10-12T16:31:17.815Z,21.50
2018-10-12T16:33:46.962Z,21.50
2018-10-12T16:36:16.039Z,21.30
2018-10-12T16:38:46.507Z,21.30
2018-10-12T16:41:15.801Z,21.20
2018-10-12T16:43:49.313Z,21.10
2018-10-12T16:46:18.375Z,21.00
2018-10-12T16:48:47.425Z,20.90
2018-10-12T16:51:16.427Z,20.70
2018-10-12T16:53:45.629Z,20.60
2018-10-12T16:56:14.686Z,20.50
2018-10-12T16:58:43.713Z,20.30
2018-10-12T17:01:12.751Z,20.10
2018-10-12T17:03:41.894Z,19.90
2018-10-12T17:06:11.001Z,19.70
2018-10-12T17:08:40.064Z,19.60
2018-10-12T17:11:09.101Z,19.50
2018-10-12T17:13:38.123Z,19.30
2018-10-12T17:16:07.276Z,19.10
2018-10-12T17:18:36.316Z,19.00
2018-10-12T17:21:05.364Z,18.90
2018-10-12T17:23:34.687Z,18.80
2018-10-12T17:26:03.793Z,18.70
2018-10-12T17:28:32.808Z,18.60
2018-10-12T17:31:01.882Z,18.50
2018-10-12T17:33:30.950Z,18.40
2018-10-12T17:36:00.006Z,18.40
2018-10-12T17:38:29.040Z,18.30
2018-10-12T17:40:58.094Z,18.30
2018-10-12T17:43:27.166Z,18.20
2018-10-12T17:45:56.194Z,18.20
2018-10-12T17:48:25.866Z,18.20
2018-10-12T17:50:54.912Z,18.10
2018-10-12T17:53:23.945Z,18.00
2018-10-12T17:55:52.962Z,18.00
2018-10-12T17:58:21.973Z,18.00
2018-10-12T18:00:50.980Z,18.00
2018-10-12T18:03:19.983Z,17.90
2018-10-12T18:05:49.036Z,17.90
2018-10-12T18:08:18.069Z,17.90
2018-10-12T18:10:47.096Z,17.80
2018-10-12T18:13:16.110Z,17.70
2018-10-12T18:15:45.132Z,17.70
2018-10-12T18:18:14.136Z,17.70
2018-10-12T18:20:43.160Z,17.60
2018-10-12T18:23:12.214Z,17.60
2018-10-12T18:25:41.241Z,17.60
2018-10-12T18:28:10.262Z,17.50
2018-10-12T18:30:39.302Z,17.50
2018-10-12T18:33:08.318Z,17.50
2018-10-12T18:35:37.324Z,17.40
2018-10-12T18:38:06.346Z,17.40
2018-10-12T18:40:35.397Z,17.40
2018-10-12T18:43:04.540Z,17.30
2018-10-12T18:45:33.526Z,17.30
2018-10-12T18:48:02.539Z,17.20
2018-10-12T18:50:31.562Z,17.20
2018-10-12T18:53:00.564Z,17.10
2018-10-12T18:55:29.637Z,17.10
2018-10-12T18:57:58.662Z,17.20
2018-10-12T19:00:27.704Z,17.20
2018-10-12T19:02:56.749Z,17.30
2018-10-12T19:05:25.775Z,17.20
2018-10-12T19:07:57.075Z,17.20
2018-10-12T19:10:26.229Z,17.10
2018-10-12T19:12:55.372Z,17.10
2018-10-12T19:15:24.643Z,17.10
2018-10-12T19:17:53.798Z,17.10
2018-10-12T19:20:23.369Z,17.00
2018-10-12T19:22:52.643Z,17.00
2018-10-12T19:25:21.681Z,17.00
2018-10-12T19:27:50.726Z,17.00
2018-10-12T19:30:19.747Z,17.00
2018-10-12T19:32:48.777Z,16.90
2018-10-12T19:35:17.892Z,16.90
2018-10-12T19:37:46.973Z,16.90
2018-10-12T19:40:16.035Z,16.90
2018-10-12T19:42:45.064Z,16.90
2018-10-12T19:45:14.229Z,16.90
2018-10-12T19:47:43.238Z,16.90
2018-10-12T19:50:12.268Z,16.90
2018-10-12T19:52:41.305Z,16.80
2018-10-12T19:55:10.335Z,16.80
2018-10-12T19:57:39.361Z,16.70
2018-10-12T20:00:08.440Z,16.70
2018-10-12T20:02:37.532Z,16.70
2018-10-12T20:05:06.617Z,16.70
2018-10-12T20:07:35.674Z,16.70
2018-10-12T20:10:11.407Z,16.70
2018-10-12T20:12:40.448Z,16.70
2018-10-12T20:15:10.552Z,16.70
2018-10-12T20:17:39.582Z,16.70
2018-10-12T20:20:08.618Z,16.80
2018-10-12T20:22:37.666Z,16.80
2018-10-12T20:25:06.805Z,16.90
2018-10-12T20:27:35.906Z,17.00
2018-10-12T20:30:05.073Z,17.00
2018-10-12T20:32:34.074Z,17.10
2018-10-12T20:35:03.099Z,17.00
2018-10-12T20:37:32.161Z,17.00
2018-10-12T20:40:01.292Z,16.90
2018-10-12T20:42:30.360Z,17.00
2018-10-12T20:44:59.453Z,17.00
2018-10-12T20:47:28.467Z,17.00
2018-10-12T20:49:57.502Z,17.00
2018-10-12T20:52:26.515Z,17.00
2018-10-12T20:54:55.568Z,17.00
2018-10-12T20:57:24.629Z,16.90
2018-10-12T20:59:53.724Z,16.80
2018-10-12T21:02:22.745Z,16.70
2018-10-12T21:04:51.788Z,16.70
2018-10-12T21:07:21.432Z,16.80
2018-10-12T21:09:50.516Z,16.80
2018-10-12T21:12:19.589Z,16.80
2018-10-12T21:14:48.612Z,16.80
2018-10-12T21:17:17.618Z,16.70
2018-10-12T21:19:46.625Z,16.70
2018-10-12T21:22:15.670Z,16.60
2018-10-12T21:24:44.725Z,16.60
2018-10-12T21:27:13.732Z,16.60
2018-10-12T21:29:42.749Z,16.60
2018-10-12T21:32:11.793Z,16.50
2018-10-12T21:34:40.810Z,16.40
2018-10-12T21:37:09.850Z,16.40
2018-10-12T21:39:38.847Z,16.40
2018-10-12T21:42:07.989Z,16.30
2018-10-12T21:44:37.061Z,16.30
2018-10-12T21:47:06.268Z,16.30
2018-10-12T21:49:35.311Z,16.30
2018-10-12T21:52:04.344Z,16.20
2018-10-12T21:54:33.363Z,16.20
2018-10-12T21:57:02.399Z,16.10
2018-10-12T21:59:38.039Z,16.10
2018-10-12T22:02:07.066Z,16.10
2018-10-12T22:04:36.088Z,16.00
2018-10-12T22:07:05.136Z,16.00
2018-10-12T22:09:34.186Z,15.90
2018-10-12T22:12:03.237Z,15.90
2018-10-12T22:14:32.350Z,15.90
2018-10-12T22:17:01.355Z,15.90
2018-10-12T22:19:30.412Z,15.90
2018-10-12T22:21:59.439Z,15.80
2018-10-12T22:24:28.480Z,15.80
2018-10-12T22:26:57.593Z,15.80
2018-10-12T22:29:26.965Z,15.70
2018-10-12T22:31:56.661Z,15.70
2018-10-12T22:34:25.737Z,15.60
2018-10-12T22:36:54.788Z,15.60
2018-10-12T22:39:23.824Z,15.50
2018-10-12T22:41:52.853Z,15.50
2018-10-12T22:44:21.864Z,15.50
2018-10-12T22:46:50.871Z,15.50
2018-10-12T22:49:19.912Z,15.40
2018-10-12T22:51:48.948Z,15.40
2018-10-12T22:54:17.990Z,15.40
2018-10-12T22:56:47.062Z,15.40
2018-10-12T22:59:16.108Z,15.40
2018-10-12T23:01:45.142Z,15.40
2018-10-12T23:04:14.182Z,15.40
2018-10-12T23:06:43.214Z,15.40
2018-10-12T23:09:12.222Z,15.30
2018-10-12T23:11:41.236Z,15.40
2018-10-12T23:14:10.397Z,15.50
2018-10-12T23:16:39.580Z,15.40
2018-10-12T23:19:08.588Z,15.40
2018-10-12T23:21:37.623Z,15.40
2018-10-12T23:24:06.989Z,15.40
2018-10-12T23:26:36.026Z,15.40
2018-10-12T23:29:05.078Z,15.40
2018-10-12T23:31:34.105Z,15.40
2018-10-12T23:34:08.353Z,15.40
2018-10-12T23:36:37.377Z,15.40
2018-10-12T23:39:08.632Z,15.40
2018-10-12T23:41:37.680Z,15.40
2018-10-12T23:44:06.743Z,15.50
2018-10-12T23:46:35.806Z,15.60
2018-10-12T23:49:04.890Z,15.60
2018-10-12T23:51:33.957Z,15.50
2018-10-12T23:54:02.988Z,15.50
2018-10-12T23:56:31.997Z,15.50
2018-10-12T23:59:00.983Z,15.40
